createdAt,value
2023-05-23T00:01:28.794Z,21.60
2023-05-23T00:04:02.357Z,21.70
2023-05-23T00:06:32.513Z,21.60
2023-05-23T00:09:03.465Z,21.50
2023-05-23T00:11:34.828Z,21.50
2023-05-23T00:14:04.734Z,21.50
2023-05-23T00:16:41.725Z,21.40
2023-05-23T00:19:12.361Z,21.20
2023-05-23T00:21:43.975Z,21.20
2023-05-23T00:24:13.594Z,21.50
2023-05-23T00:26:43.406Z,21.60
2023-05-23T00:29:17.314Z,21.60
2023-05-23T00:31:49.799Z,21.50
2023-05-23T00:34:20.517Z,21.40
2023-05-23T00:36:52.292Z,21.50
2023-05-23T00:39:22.717Z,21.20
2023-05-23T00:41:53.429Z,21.40
2023-05-23T00:44:24.885Z,21.50
2023-05-23T00:46:58.606Z,21.50
2023-05-23T00:49:30.871Z,21.50
2023-05-23T00:52:01.187Z,21.50
2023-05-23T00:54:33.151Z,21.60
2023-05-23T00:57:02.854Z,21.40
2023-05-23T00:59:33.898Z,21.30
2023-05-23T01:02:06.858Z,21.40
2023-05-23T01:04:37.511Z,21.40
2023-05-23T01:07:08.557Z,21.30
2023-05-23T01:09:40.328Z,21.20
2023-05-23T01:12:21.074Z,21.40
2023-05-23T01:15:05.028Z,21.10
2023-05-23T01:17:47.974Z,21.20
2023-05-23T01:20:22.063Z,21.20
2023-05-23T01:23:22.687Z,21.10
2023-05-23T01:26:26.800Z,21.20
2023-05-23T01:29:10.776Z,21.20
2023-05-23T01:31:47.666Z,21.20
2023-05-23T01:34:19.172Z,21.20
2023-05-23T01:36:53.707Z,21.20
2023-05-23T01:39:23.518Z,21.10
2023-05-23T01:41:55.091Z,21.10
2023-05-23T01:44:27.644Z,21.20
2023-05-23T01:46:58.396Z,21.00
2023-05-23T01:49:28.396Z,20.90
2023-05-23T01:51:58.206Z,21.10
2023-05-23T01:54:29.964Z,21.10
2023-05-23T01:57:00.739Z,21.00
2023-05-23T01:59:32.364Z,21.10
2023-05-23T02:02:03.279Z,21.00
2023-05-23T02:04:37.118Z,20.90
2023-05-23T02:07:07.945Z,20.90
2023-05-23T02:09:38.866Z,20.90
2023-05-23T02:12:09.926Z,20.70
2023-05-23T02:14:42.796Z,20.80
2023-05-23T02:17:12.867Z,20.90
2023-05-23T02:19:44.160Z,20.70
2023-05-23T02:22:18.697Z,20.70
2023-05-23T02:24:48.704Z,20.60
2023-05-23T02:27:18.610Z,20.70
2023-05-23T02:29:50.062Z,20.90
2023-05-23T02:32:20.297Z,20.80
2023-05-23T02:34:51.342Z,20.80
2023-05-23T02:37:21.245Z,20.90
2023-05-23T02:39:51.073Z,20.90
2023-05-23T02:42:20.557Z,20.70
2023-05-23T02:44:53.137Z,20.60
2023-05-23T02:47:23.084Z,20.60
2023-05-23T02:49:53.676Z,20.50
2023-05-23T02:52:23.177Z,20.50
2023-05-23T02:54:53.407Z,20.30
2023-05-23T02:57:24.747Z,20.40
2023-05-23T02:59:57.219Z,20.30
2023-05-23T03:02:27.438Z,20.30
2023-05-23T03:05:00.662Z,20.40
2023-05-23T03:07:34.959Z,20.30
2023-05-23T03:10:04.887Z,20.40
2023-05-23T03:12:35.183Z,20.60
2023-05-23T03:15:07.266Z,20.60
2023-05-23T03:17:39.768Z,20.60
2023-05-23T03:20:10.366Z,20.60
2023-05-23T03:22:43.985Z,20.50
2023-05-23T03:25:13.887Z,20.50
2023-05-23T03:27:43.584Z,20.50
2023-05-23T03:30:18.105Z,20.60
2023-05-23T03:32:48.483Z,20.50
2023-05-23T03:35:18.560Z,20.50
2023-05-23T03:37:48.984Z,20.50
2023-05-23T03:40:18.892Z,20.40
2023-05-23T03:42:50.543Z,20.40
2023-05-23T03:45:22.206Z,20.10
2023-05-23T03:47:52.058Z,20.10
2023-05-23T03:50:22.334Z,20.20
2023-05-23T03:52:52.052Z,20.10
2023-05-23T03:55:22.979Z,20.10
2023-05-23T03:57:54.125Z,20.20
2023-05-23T04:00:25.572Z,20.10
2023-05-23T04:02:55.550Z,20.20
2023-05-23T04:05:28.787Z,20.00
2023-05-23T04:08:01.774Z,20.10
2023-05-23T04:10:33.531Z,19.90
2023-05-23T04:13:03.349Z,19.80
2023-05-23T04:15:35.712Z,19.90
2023-05-23T04:18:15.554Z,19.80
2023-05-23T04:20:45.575Z,19.80
2023-05-23T04:23:15.082Z,19.90
2023-05-23T04:25:50.027Z,20.10
2023-05-23T04:28:29.352Z,20.40
2023-05-23T04:31:03.217Z,20.20
2023-05-23T04:33:36.647Z,20.30
2023-05-23T04:36:11.073Z,20.10
2023-05-23T04:38:44.375Z,20.20
2023-05-23T04:41:16.709Z,20.30
2023-05-23T04:44:00.785Z,20.40
2023-05-23T04:46:42.603Z,20.40
2023-05-23T04:49:23.241Z,20.10
2023-05-23T04:51:53.367Z,20.00
2023-05-23T04:54:30.965Z,20.00
2023-05-23T04:57:02.956Z,20.30
2023-05-23T04:59:33.151Z,20.10
2023-05-23T05:02:04.476Z,20.00
2023-05-23T05:04:34.093Z,20.20
2023-05-23T05:07:04.822Z,20.30
2023-05-23T05:09:34.844Z,20.50
2023-05-23T05:12:04.964Z,20.50
2023-05-23T05:14:34.590Z,20.40
2023-05-23T05:17:06.590Z,20.60
2023-05-23T05:19:44.545Z,20.80
2023-05-23T05:22:14.455Z,21.10
2023-05-23T05:24:43.958Z,21.40
2023-05-23T05:27:13.879Z,21.40
2023-05-23T05:29:44.723Z,21.50
2023-05-23T05:32:15.842Z,21.70
2023-05-23T05:34:49.251Z,21.90
2023-05-23T05:37:21.522Z,22.00
2023-05-23T05:39:51.646Z,22.10
2023-05-23T05:42:21.243Z,22.10
2023-05-23T05:44:51.568Z,22.30
2023-05-23T05:47:23.252Z,22.30
2023-05-23T05:49:55.284Z,22.30
2023-05-23T05:52:25.382Z,22.30
2023-05-23T05:54:55.324Z,22.10
2023-05-23T05:57:26.878Z,22.10
2023-05-23T05:59:59.899Z,22.00
2023-05-23T06:02:32.572Z,22.00
2023-05-23T06:05:02.257Z,22.00
2023-05-23T06:07:32.681Z,22.00
2023-05-23T06:10:03.826Z,22.30
2023-05-23T06:12:34.757Z,22.40
2023-05-23T06:15:05.899Z,22.40
2023-05-23T06:17:37.827Z,22.40
2023-05-23T06:20:09.525Z,22.70
2023-05-23T06:22:42.190Z,22.80
2023-05-23T06:25:13.880Z,22.90
2023-05-23T06:27:45.305Z,22.90
2023-05-23T06:30:16.347Z,23.00
2023-05-23T06:32:49.674Z,23.00
2023-05-23T06:35:21.294Z,23.00
2023-05-23T06:37:53.767Z,23.20
2023-05-23T06:40:24.089Z,23.40
2023-05-23T06:42:54.216Z,23.40
2023-05-23T06:45:49.224Z,23.40
2023-05-23T06:48:20.760Z,23.60
2023-05-23T06:50:53.263Z,23.60
2023-05-23T06:53:25.813Z,23.80
2023-05-23T06:55:56.545Z,23.80
2023-05-23T06:58:27.297Z,23.80
2023-05-23T07:01:00.597Z,23.80
2023-05-23T07:03:36.225Z,23.80
2023-05-23T07:06:09.828Z,23.90
2023-05-23T07:08:41.694Z,23.80
2023-05-23T07:11:12.308Z,23.80
2023-05-23T07:14:03.443Z,23.60
2023-05-23T07:16:44.258Z,23.60
2023-05-23T07:19:17.329Z,23.80
2023-05-23T07:21:52.727Z,23.70
2023-05-23T07:24:24.515Z,23.70
2023-05-23T07:26:57.465Z,24.00
2023-05-23T07:29:28.621Z,24.00
2023-05-23T07:31:59.441Z,24.10
2023-05-23T07:34:32.228Z,24.20
2023-05-23T07:37:04.292Z,24.30
2023-05-23T07:39:41.481Z,24.10
2023-05-23T07:42:11.628Z,24.20
2023-05-23T07:44:43.561Z,24.10
2023-05-23T07:47:13.273Z,24.00
2023-05-23T07:49:45.224Z,24.20
2023-05-23T07:52:15.048Z,24.30
2023-05-23T07:54:47.005Z,24.50
2023-05-23T07:57:18.273Z,24.60
2023-05-23T07:59:48.272Z,24.90
2023-05-23T08:02:18.096Z,24.80
2023-05-23T08:04:50.550Z,24.60
2023-05-23T08:07:22.310Z,24.60
2023-05-23T08:10:06.360Z,24.80
2023-05-23T08:12:37.098Z,24.90
2023-05-23T08:15:15.408Z,24.90
2023-05-23T08:17:49.880Z,24.90
2023-05-23T08:20:22.521Z,25.30
2023-05-23T08:22:53.445Z,25.40
2023-05-23T08:25:23.307Z,25.10
2023-05-23T08:27:54.020Z,25.20
2023-05-23T08:30:41.148Z,25.10
2023-05-23T08:33:11.499Z,25.40
2023-05-23T08:35:44.622Z,25.50
2023-05-23T08:38:15.971Z,25.40
2023-05-23T08:41:03.610Z,25.70
2023-05-23T08:43:34.226Z,25.90
2023-05-23T08:46:05.833Z,26.10
2023-05-23T08:48:39.279Z,26.10
2023-05-23T08:51:13.286Z,26.20
2023-05-23T08:53:47.507Z,26.10
2023-05-23T08:56:19.777Z,26.00
2023-05-23T08:58:53.585Z,25.80
2023-05-23T09:01:26.892Z,25.80
2023-05-23T09:04:05.291Z,25.80
2023-05-23T09:07:12.268Z,25.80
2023-05-23T09:09:42.297Z,25.80
2023-05-23T09:12:16.416Z,25.50
2023-05-23T09:14:49.292Z,26.00
2023-05-23T09:17:21.013Z,25.60
2023-05-23T09:19:50.749Z,25.90
2023-05-23T09:22:34.614Z,26.20
2023-05-23T09:25:11.676Z,26.10
2023-05-23T09:27:47.553Z,26.10
2023-05-23T09:30:23.792Z,26.10
2023-05-23T09:33:05.386Z,26.00
2023-05-23T09:35:36.729Z,26.40
2023-05-23T09:38:10.738Z,26.60
2023-05-23T09:40:40.757Z,26.60
2023-05-23T09:43:10.670Z,26.60
2023-05-23T09:45:40.585Z,26.40
2023-05-23T09:48:15.623Z,26.40
2023-05-23T09:50:51.796Z,26.50
2023-05-23T09:57:13.426Z,26.30
2023-05-23T10:00:39.500Z,26.60
2023-05-23T10:03:19.205Z,26.80
2023-05-23T10:05:50.767Z,26.60
2023-05-23T10:08:30.404Z,26.60
2023-05-23T10:11:47.003Z,26.40
2023-05-23T10:14:24.095Z,26.50
2023-05-23T10:17:11.009Z,26.80
2023-05-23T10:20:01.296Z,27.40
2023-05-23T10:22:37.139Z,27.40
2023-05-23T10:25:13.846Z,27.20
2023-05-23T10:27:52.972Z,27.00
2023-05-23T10:30:24.094Z,27.00
2023-05-23T10:32:54.975Z,26.90
2023-05-23T10:35:31.842Z,27.10
2023-05-23T10:38:07.039Z,27.30
2023-05-23T10:40:52.522Z,27.10
2023-05-23T10:43:29.364Z,27.10
2023-05-23T10:45:59.308Z,26.90
2023-05-23T10:48:36.599Z,27.20
2023-05-23T10:51:08.351Z,27.10
2023-05-23T10:53:40.040Z,27.50
2023-05-23T10:56:12.927Z,27.10
2023-05-23T10:58:42.607Z,27.70
2023-05-23T11:01:18.355Z,27.40
2023-05-23T11:03:56.347Z,27.50
2023-05-23T11:06:34.561Z,27.50
2023-05-23T11:09:08.782Z,27.40
2023-05-23T11:12:07.280Z,27.50
2023-05-23T11:14:55.896Z,27.50
2023-05-23T11:17:35.489Z,27.50
2023-05-23T11:20:10.156Z,28.20
2023-05-23T11:22:40.316Z,28.00
2023-05-23T11:25:10.705Z,28.20
2023-05-23T11:27:43.409Z,28.20
2023-05-23T11:30:15.162Z,28.00
2023-05-23T11:32:52.067Z,28.10
2023-05-23T11:35:24.015Z,28.20
2023-05-23T11:37:54.647Z,28.30
2023-05-23T11:40:32.040Z,28.50
2023-05-23T11:43:05.444Z,28.10
2023-05-23T11:45:35.976Z,28.90
2023-05-23T11:48:09.965Z,29.00
2023-05-23T11:50:46.971Z,28.90
2023-05-23T11:53:19.626Z,28.90
2023-05-23T11:55:54.157Z,28.80
2023-05-23T11:58:29.078Z,29.30
2023-05-23T12:01:02.882Z,29.60
2023-05-23T12:03:33.271Z,29.20
2023-05-23T12:06:03.649Z,28.80
2023-05-23T12:08:33.359Z,29.20
2023-05-23T12:11:04.590Z,29.10
2023-05-23T12:13:35.737Z,29.40
2023-05-23T12:16:06.446Z,29.40
2023-05-23T12:18:36.592Z,28.90
2023-05-23T12:21:08.627Z,29.20
2023-05-23T12:23:38.977Z,28.90
2023-05-23T12:26:10.581Z,29.00
2023-05-23T12:28:46.902Z,29.10
2023-05-23T12:31:19.543Z,29.20
2023-05-23T12:33:52.154Z,29.50
2023-05-23T12:36:27.451Z,29.40
2023-05-23T12:39:06.126Z,29.40
2023-05-23T12:41:36.336Z,30.30
2023-05-23T12:44:07.905Z,30.80
2023-05-23T12:46:37.753Z,29.90
2023-05-23T12:49:08.035Z,29.90
2023-05-23T12:51:38.462Z,29.80
2023-05-23T12:54:08.569Z,29.50
2023-05-23T12:56:38.291Z,29.90
2023-05-23T12:59:11.467Z,30.20
2023-05-23T13:01:41.957Z,30.00
2023-05-23T13:04:13.969Z,30.20
2023-05-23T13:06:44.177Z,30.00
2023-05-23T13:09:13.802Z,29.90
2023-05-23T13:11:44.627Z,30.30
2023-05-23T13:14:15.777Z,30.20
2023-05-23T13:16:46.106Z,30.30
2023-05-23T13:19:16.105Z,30.50
2023-05-23T13:21:47.369Z,30.10
2023-05-23T13:24:19.430Z,30.30
2023-05-23T13:26:49.124Z,30.10
2023-05-23T13:29:21.708Z,30.00
2023-05-23T13:31:51.721Z,30.00
2023-05-23T13:34:21.547Z,30.40
2023-05-23T13:36:51.749Z,30.70
2023-05-23T13:39:23.094Z,31.00
2023-05-23T13:41:52.910Z,30.60
2023-05-23T13:44:24.361Z,31.30
2023-05-23T13:46:54.126Z,31.00
2023-05-23T13:49:23.891Z,30.70
2023-05-23T13:51:53.496Z,31.50
2023-05-23T13:54:22.992Z,30.90
2023-05-23T13:56:52.806Z,30.80
2023-05-23T13:59:23.965Z,30.70
2023-05-23T14:01:53.564Z,31.50
2023-05-23T14:04:23.802Z,30.50
2023-05-23T14:06:53.595Z,31.20
2023-05-23T14:09:23.533Z,30.90
2023-05-23T14:11:53.232Z,32.30
2023-05-23T14:14:24.568Z,32.50
2023-05-23T14:16:54.077Z,32.00
2023-05-23T14:19:23.828Z,31.50
2023-05-23T14:21:55.130Z,30.90
2023-05-23T14:24:24.859Z,31.80
2023-05-23T14:26:54.651Z,31.40
2023-05-23T14:29:25.697Z,31.40
2023-05-23T14:31:55.346Z,31.00
2023-05-23T14:34:25.007Z,31.10
2023-05-23T14:36:54.827Z,31.50
2023-05-23T14:39:25.808Z,32.40
2023-05-23T14:41:55.567Z,33.30
2023-05-23T14:44:26.561Z,32.90
2023-05-23T14:46:57.956Z,32.20
2023-05-23T14:49:29.312Z,31.60
2023-05-23T14:51:59.964Z,31.90
2023-05-23T14:54:29.863Z,32.70
2023-05-23T14:57:00.174Z,32.80
2023-05-23T14:59:32.371Z,32.40
2023-05-23T15:02:02.653Z,32.80
2023-05-23T15:04:32.734Z,32.20
2023-05-23T15:07:02.491Z,31.70
2023-05-23T15:09:32.841Z,31.30
2023-05-23T15:12:02.766Z,30.40
2023-05-23T15:14:36.247Z,30.50
2023-05-23T15:17:09.114Z,30.50
2023-05-23T15:19:39.671Z,30.60
2023-05-23T15:22:22.272Z,30.90
2023-05-23T15:25:01.588Z,30.80
2023-05-23T15:27:31.507Z,30.40
2023-05-23T15:30:02.829Z,31.30
2023-05-23T15:32:32.710Z,30.50
2023-05-23T15:35:02.300Z,30.50
2023-05-23T15:37:33.630Z,30.50
2023-05-23T15:40:04.257Z,30.10
2023-05-23T15:42:33.970Z,30.30
2023-05-23T15:45:05.405Z,30.20
2023-05-23T15:47:35.283Z,30.60
2023-05-23T15:50:04.737Z,31.20
2023-05-23T15:52:34.440Z,31.00
2023-05-23T15:55:05.993Z,31.50
2023-05-23T15:57:35.999Z,31.30
2023-05-23T16:00:08.286Z,31.00
2023-05-23T16:02:41.417Z,31.90
2023-05-23T16:05:11.382Z,32.30
2023-05-23T16:07:41.808Z,32.10
2023-05-23T16:10:14.290Z,31.40
2023-05-23T16:12:44.200Z,30.50
2023-05-23T16:15:15.448Z,30.10
2023-05-23T16:17:45.173Z,30.00
2023-05-23T16:20:16.290Z,29.90
2023-05-23T16:22:46.524Z,30.20
2023-05-23T16:25:16.859Z,30.10
2023-05-23T16:27:46.661Z,30.50
2023-05-23T16:30:18.212Z,30.70
2023-05-23T16:32:49.093Z,29.90
2023-05-23T16:35:18.872Z,29.50
2023-05-23T16:37:48.572Z,29.30
2023-05-23T16:40:19.845Z,28.70
2023-05-23T16:42:49.637Z,28.70
2023-05-23T16:45:21.481Z,28.70
2023-05-23T16:47:51.640Z,28.60
2023-05-23T16:50:21.625Z,28.70
2023-05-23T16:52:52.450Z,28.40
2023-05-23T16:55:22.578Z,28.30
2023-05-23T16:57:52.800Z,28.30
2023-05-23T17:00:24.366Z,28.10
2023-05-23T17:02:59.398Z,28.00
2023-05-23T17:05:31.047Z,28.00
2023-05-23T17:08:01.051Z,27.90
2023-05-23T17:10:33.878Z,27.90
2023-05-23T17:13:04.364Z,27.80
2023-05-23T17:15:36.266Z,27.70
2023-05-23T17:18:09.135Z,27.70
2023-05-23T17:20:40.767Z,27.80
2023-05-23T17:23:12.172Z,27.80
2023-05-23T17:25:56.573Z,27.70
2023-05-23T17:28:32.093Z,27.60
2023-05-23T17:31:09.537Z,27.50
2023-05-23T17:33:43.418Z,27.60
2023-05-23T17:36:18.040Z,27.60
2023-05-23T17:38:56.972Z,27.60
2023-05-23T17:41:41.204Z,27.60
2023-05-23T17:44:14.610Z,27.40
2023-05-23T17:46:46.855Z,27.20
2023-05-23T17:49:16.793Z,27.20
2023-05-23T17:51:47.319Z,26.70
2023-05-23T17:54:20.827Z,26.50
2023-05-23T17:56:51.061Z,26.40
2023-05-23T17:59:21.461Z,26.00
2023-05-23T18:01:52.708Z,25.60
2023-05-23T18:04:26.966Z,25.50
2023-05-23T18:06:59.272Z,25.40
2023-05-23T18:09:33.016Z,25.60
2023-05-23T18:12:04.464Z,25.60
2023-05-23T18:14:50.046Z,25.40
2023-05-23T18:17:31.016Z,25.10
2023-05-23T18:22:55.745Z,24.70
2023-05-23T18:25:41.010Z,24.60
2023-05-23T18:28:14.991Z,24.70
2023-05-23T18:31:10.215Z,24.50
2023-05-23T18:33:45.389Z,24.50
2023-05-23T18:36:17.717Z,24.30
2023-05-23T18:41:42.533Z,24.20
2023-05-23T18:44:12.860Z,24.00
2023-05-23T18:51:26.635Z,23.80
2023-05-23T18:54:13.962Z,23.80
2023-05-23T18:57:51.343Z,23.90
2023-05-23T19:00:29.867Z,23.90
2023-05-23T19:03:05.752Z,23.70
2023-05-23T19:05:38.187Z,23.30
2023-05-23T19:08:13.949Z,23.40
2023-05-23T19:10:45.598Z,23.50
2023-05-23T19:13:24.410Z,23.20
2023-05-23T19:16:24.558Z,23.10
2023-05-23T19:18:54.278Z,23.10
2023-05-23T19:26:01.696Z,23.10
2023-05-23T19:28:41.831Z,23.00
2023-05-23T19:31:19.840Z,22.70
2023-05-23T19:38:07.117Z,23.60
2023-05-23T19:40:41.795Z,23.00
2023-05-23T19:47:45.150Z,23.40
2023-05-23T19:50:22.938Z,22.90
2023-05-23T19:57:08.945Z,22.90
2023-05-23T20:04:08.380Z,22.20
2023-05-23T20:06:45.219Z,22.70
2023-05-23T20:09:20.295Z,22.50
2023-05-23T20:15:53.356Z,22.30
2023-05-23T20:18:28.147Z,22.40
2023-05-23T20:25:24.305Z,23.20
2023-05-23T20:27:59.125Z,22.30
2023-05-23T20:30:46.520Z,22.30
2023-05-23T20:37:54.695Z,22.10
2023-05-23T20:40:45.331Z,22.10
2023-05-23T20:47:47.539Z,22.10
2023-05-23T20:50:28.566Z,22.30
2023-05-23T20:57:08.125Z,23.20
2023-05-23T20:59:45.413Z,22.60
2023-05-23T21:06:41.785Z,22.60
2023-05-23T21:09:18.034Z,22.50
2023-05-23T21:15:11.850Z,22.20
2023-05-23T21:17:48.949Z,22.30
2023-05-23T21:20:26.085Z,22.40
2023-05-23T21:23:01.647Z,22.50
2023-05-23T21:25:37.179Z,22.60
2023-05-23T21:28:17.140Z,22.80
2023-05-23T21:30:55.616Z,22.60
2023-05-23T21:33:30.304Z,22.60
2023-05-23T21:36:05.417Z,22.60
2023-05-23T21:38:40.792Z,22.60
2023-05-23T21:41:19.272Z,22.40
2023-05-23T21:43:59.314Z,23.00
2023-05-23T21:46:36.871Z,22.40
2023-05-23T21:49:17.262Z,22.70
2023-05-23T21:52:03.876Z,22.70
2023-05-23T21:54:43.937Z,22.70
2023-05-23T21:57:21.127Z,22.80
2023-05-23T21:59:57.384Z,22.70
2023-05-23T22:02:29.896Z,22.60
2023-05-23T22:05:09.697Z,22.60
2023-05-23T22:07:46.270Z,22.40
2023-05-23T22:10:18.329Z,22.20
2023-05-23T22:15:37.943Z,22.40
2023-05-23T22:18:51.119Z,22.50
2023-05-23T22:21:28.650Z,22.70
2023-05-23T22:24:00.155Z,22.60
2023-05-23T22:26:30.551Z,22.40
2023-05-23T22:29:02.901Z,22.40
2023-05-23T22:31:36.411Z,22.50
2023-05-23T22:34:07.946Z,22.70
2023-05-23T22:36:37.779Z,22.60
2023-05-23T22:39:08.487Z,22.60
2023-05-23T22:41:37.895Z,22.60
2023-05-23T22:44:07.398Z,22.60
2023-05-23T22:46:37.156Z,22.60
2023-05-23T22:49:09.897Z,22.50
2023-05-23T22:51:40.834Z,22.10
2023-05-23T22:54:10.441Z,22.00
2023-05-23T22:56:40.055Z,21.90
2023-05-23T22:59:09.650Z,21.60
2023-05-23T23:01:39.665Z,21.60
2023-05-23T23:04:10.917Z,21.50
2023-05-23T23:06:43.502Z,21.60
2023-05-23T23:09:14.729Z,21.80
2023-05-23T23:11:44.257Z,21.80
2023-05-23T23:14:14.048Z,21.70
2023-05-23T23:16:43.842Z,21.70
2023-05-23T23:19:15.108Z,21.70
2023-05-23T23:21:44.831Z,21.50
2023-05-23T23:24:14.428Z,21.60
2023-05-23T23:26:44.028Z,21.80
2023-05-23T23:29:13.641Z,21.60
2023-05-23T23:31:43.163Z,21.50
2023-05-23T23:34:14.489Z,21.40
2023-05-23T23:36:44.311Z,21.20
2023-05-23T23:39:14.220Z,21.20
2023-05-23T23:41:44.025Z,21.30
2023-05-23T23:44:13.842Z,21.30
2023-05-23T23:46:43.666Z,21.40
2023-05-23T23:49:15.730Z,21.40
2023-05-23T23:51:45.530Z,21.30
2023-05-23T23:54:15.135Z,21.20
2023-05-23T23:56:44.631Z,21.10
2023-05-23T23:59:14.315Z,21.10
